Time,TemperatureF,DewpointF,PressureIn,WindDirection,WindDirectionDegrees,WindSpeedMPH,WindSpeedGustMPH,Humidity,HourlyPrecipIn,Conditions,Clouds,dailyrainin,SolarRadiationWatts/m^2,SoftwareType,DateUTC
2013-05-14 00:01:00,40.4,29.6,30.45,SW,230,0.0,0.0,65,0.00,,,0.00,0,WeatherHawk,2013-05-14 04:01:00,
2013-05-14 00:03:00,40.7,29.8,30.45,SSW,205,0.0,0.0,65,0.00,,,0.00,0,WeatherHawk,2013-05-14 04:03:00,
2013-05-14 00:04:00,40.8,29.9,30.44,SSW,209,0.0,-999.0,65,0.00,,,0.00,0,WeatherHawk,2013-05-14 04:04:00,
2013-05-14 00:08:00,39.8,28.6,30.45,WSW,254,0.0,0.0,64,0.00,,,0.00,0,WeatherHawk,2013-05-14 04:08:00,
2013-05-14 00:09:00,39.6,28.4,30.45,WSW,254,0.0,-999.0,64,0.00,,,0.00,0,WeatherHawk,2013-05-14 04:09:00,
2013-05-14 00:14:00,39.6,29.2,30.45,South,189,0.0,0.0,66,0.00,,,0.00,1,WeatherHawk,2013-05-14 04:14:00,
2013-05-14 00:19:00,39.3,29.3,30.45,West,268,0.0,-999.0,67,0.00,,,0.00,0,WeatherHawk,2013-05-14 04:19:00,
2013-05-14 00:24:00,39.2,29.9,30.45,ESE,107,0.0,0.0,69,0.00,,,0.00,0,WeatherHawk,2013-05-14 04:24:00,
2013-05-14 00:29:00,39.4,30.5,30.44,ESE,107,0.0,0.0,70,0.00,,,0.00,0,WeatherHawk,2013-05-14 04:29:00,
2013-05-14 00:34:00,39.3,31.1,30.45,SW,221,0.0,0.0,72,0.00,,,0.00,0,WeatherHawk,2013-05-14 04:34:00,
2013-05-14 00:39:00,39.4,31.4,30.44,SW,221,0.0,0.0,73,0.00,,,0.00,0,WeatherHawk,2013-05-14 04:39:00,
2013-05-14 00:44:00,38.9,31.0,30.45,SW,221,0.0,0.0,73,0.00,,,0.00,0,WeatherHawk,2013-05-14 04:44:00,
2013-05-14 00:49:00,39.3,31.7,30.45,East,101,0.0,-999.0,74,0.00,,,0.00,0,WeatherHawk,2013-05-14 04:49:00,
2013-05-14 00:54:00,39.2,31.3,30.45,WSW,257,0.0,0.0,73,0.00,,,0.00,0,WeatherHawk,2013-05-14 04:54:00,
2013-05-14 00:59:00,39.3,31.7,30.45,WSW,257,0.0,-999.0,74,0.00,,,0.00,1,WeatherHawk,2013-05-14 04:59:00,
2013-05-14 01:04:00,39.4,31.8,30.45,WSW,255,0.0,0.0,74,0.00,,,0.00,0,WeatherHawk,2013-05-14 05:04:00,
2013-05-14 01:09:00,38.8,31.9,30.44,SW,232,0.0,0.0,76,0.00,,,0.00,0,WeatherHawk,2013-05-14 05:09:00,
2013-05-14 01:14:00,38.3,31.7,30.45,SW,232,0.0,0.0,77,0.00,,,0.00,0,WeatherHawk,2013-05-14 05:14:00,
2013-05-14 01:19:00,39.1,33.1,30.45,SSW,212,0.0,-999.0,79,0.00,,,0.00,0,WeatherHawk,2013-05-14 05:19:00,
2013-05-14 01:24:00,38.4,32.5,30.45,SSE,162,0.0,0.0,79,0.00,,,0.00,0,WeatherHawk,2013-05-14 05:24:00,
2013-05-14 01:29:00,38.2,32.2,30.45,South,182,0.0,-999.0,79,0.00,,,0.00,0,WeatherHawk,2013-05-14 05:29:00,
2013-05-14 01:34:00,38.4,32.7,30.45,South,183,0.0,0.0,80,0.00,,,0.00,1,WeatherHawk,2013-05-14 05:34:00,
2013-05-14 01:39:00,38.0,32.4,30.45,South,183,0.0,0.0,80,0.00,,,0.00,0,WeatherHawk,2013-05-14 05:39:00,
2013-05-14 01:44:00,37.6,32.6,30.45,South,183,0.0,0.0,82,0.00,,,0.00,0,WeatherHawk,2013-05-14 05:44:00,
2013-05-14 01:49:00,38.2,33.8,30.45,ENE,65,0.0,0.0,84,0.00,,,0.00,0,WeatherHawk,2013-05-14 05:49:00,
2013-05-14 01:54:00,37.5,33.1,30.44,North,4,0.0,0.0,84,0.00,,,0.00,0,WeatherHawk,2013-05-14 05:54:00,
2013-05-14 01:59:00,37.2,33.1,30.44,North,8,0.0,-999.0,85,0.00,,,0.00,1,WeatherHawk,2013-05-14 05:59:00,
2013-05-14 02:04:00,37.3,33.5,30.44,East,98,0.0,0.0,86,0.00,,,0.00,0,WeatherHawk,2013-05-14 06:04:00,
2013-05-14 02:09:00,37.6,34.0,30.44,NW,306,0.0,-999.0,87,0.00,,,0.00,0,WeatherHawk,2013-05-14 06:09:00,
2013-05-14 02:14:00,37.1,33.6,30.45,West,279,0.0,0.0,87,0.00,,,0.00,0,WeatherHawk,2013-05-14 06:14:00,
2013-05-14 02:19:00,38.2,34.9,30.45,West,279,0.0,-999.0,88,0.00,,,0.00,0,WeatherHawk,2013-05-14 06:19:00,
2013-05-14 02:24:00,37.6,34.7,30.44,West,276,0.0,0.0,89,0.00,,,0.00,0,WeatherHawk,2013-05-14 06:24:00,
2013-05-14 02:29:00,37.1,34.1,30.44,West,264,0.0,0.0,89,0.00,,,0.00,0,WeatherHawk,2013-05-14 06:29:00,
2013-05-14 02:34:00,37.4,34.5,30.44,SW,236,0.0,0.0,89,0.00,,,0.00,0,WeatherHawk,2013-05-14 06:34:00,
2013-05-14 02:39:00,36.8,33.8,30.44,SSW,210,0.0,0.0,89,0.00,,,0.00,1,WeatherHawk,2013-05-14 06:39:00,
2013-05-14 02:44:00,36.6,34.0,30.44,SSW,212,0.0,0.0,90,0.00,,,0.00,0,WeatherHawk,2013-05-14 06:44:00,
2013-05-14 02:49:00,37.1,34.7,30.44,SSW,212,0.0,-999.0,91,0.00,,,0.00,0,WeatherHawk,2013-05-14 06:49:00,
2013-05-14 02:54:00,36.9,34.5,30.44,South,183,0.0,0.0,91,0.00,,,0.00,0,WeatherHawk,2013-05-14 06:54:00,
2013-05-14 02:59:00,36.9,34.5,30.44,SE,125,0.0,0.0,91,0.00,,,0.00,0,WeatherHawk,2013-05-14 06:59:00,
2013-05-14 03:04:00,36.7,34.6,30.44,SSE,148,0.0,0.0,92,0.00,,,0.00,0,WeatherHawk,2013-05-14 07:04:00,
2013-05-14 03:09:00,36.4,34.3,30.44,SSW,194,0.0,0.0,92,0.00,,,0.00,0,WeatherHawk,2013-05-14 07:09:00,
2013-05-14 03:14:00,36.7,34.6,30.44,SSW,194,0.0,0.0,92,0.00,,,0.00,1,WeatherHawk,2013-05-14 07:14:00,
2013-05-14 03:19:00,36.7,34.8,30.44,SSW,194,0.0,-999.0,93,0.00,,,0.00,0,WeatherHawk,2013-05-14 07:19:00,
2013-05-14 03:24:00,35.9,34.1,30.44,SSW,194,0.0,0.0,93,0.00,,,0.00,0,WeatherHawk,2013-05-14 07:24:00,
2013-05-14 03:29:00,36.8,34.9,30.45,SSW,195,0.0,-999.0,93,0.00,,,0.00,0,WeatherHawk,2013-05-14 07:29:00,
2013-05-14 03:34:00,36.7,34.9,30.45,SSW,195,0.0,0.0,93,0.00,,,0.00,0,WeatherHawk,2013-05-14 07:34:00,
2013-05-14 03:39:00,36.6,34.7,30.44,SSW,195,0.0,0.0,93,0.00,,,0.00,0,WeatherHawk,2013-05-14 07:39:00,
2013-05-14 03:44:00,36.1,34.5,30.45,South,191,0.0,0.0,94,0.00,,,0.00,0,WeatherHawk,2013-05-14 07:44:00,
2013-05-14 03:50:00,36.6,35.0,30.45,SE,124,0.0,0.0,94,0.00,,,0.00,0,WeatherHawk,2013-05-14 07:50:00,
2013-05-14 03:55:00,36.1,34.5,30.45,SE,124,0.0,0.0,94,0.00,,,0.00,1,WeatherHawk,2013-05-14 07:55:00,
2013-05-14 04:00:00,36.6,35.1,30.45,ESE,112,0.0,0.0,94,0.00,,,0.00,0,WeatherHawk,2013-05-14 08:00:00,
2013-05-14 04:05:00,36.4,34.8,30.45,SSE,147,0.0,0.0,94,0.00,,,0.00,1,WeatherHawk,2013-05-14 08:05:00,
2013-05-14 04:10:00,35.7,34.4,30.45,SSE,147,0.0,0.0,95,0.00,,,0.00,0,WeatherHawk,2013-05-14 08:10:00,
2013-05-14 04:15:00,35.8,34.6,30.45,SSW,198,0.0,0.0,95,0.00,,,0.00,0,WeatherHawk,2013-05-14 08:15:00,
2013-05-14 04:20:00,35.9,34.6,30.45,WSW,240,0.0,0.0,95,0.00,,,0.00,1,WeatherHawk,2013-05-14 08:20:00,
2013-05-14 04:25:00,36.1,34.8,30.45,WSW,256,0.0,0.0,95,0.00,,,0.00,1,WeatherHawk,2013-05-14 08:25:00,
2013-05-14 04:30:00,36.0,34.7,30.45,WSW,254,0.0,0.0,95,0.00,,,0.00,0,WeatherHawk,2013-05-14 08:30:00,
2013-05-14 04:35:00,35.9,34.9,30.45,WSW,254,0.0,0.0,96,0.00,,,0.00,1,WeatherHawk,2013-05-14 08:35:00,
2013-05-14 04:40:00,36.4,35.4,30.45,WSW,254,0.0,0.0,96,0.00,,,0.00,0,WeatherHawk,2013-05-14 08:40:00,
2013-05-14 04:45:00,35.6,34.6,30.45,WSW,254,0.0,0.0,96,0.00,,,0.00,0,WeatherHawk,2013-05-14 08:45:00,
2013-05-14 04:50:00,36.2,35.1,30.45,WSW,250,0.0,0.0,96,0.00,,,0.00,0,WeatherHawk,2013-05-14 08:50:00,
2013-05-14 04:55:00,36.1,35.1,30.45,WNW,292,0.0,0.0,96,0.00,,,0.00,1,WeatherHawk,2013-05-14 08:55:00,
2013-05-14 05:00:00,37.4,36.7,30.45,NW,305,0.0,0.0,97,0.00,,,0.00,0,WeatherHawk,2013-05-14 09:00:00,
2013-05-14 05:05:00,36.6,35.8,30.45,SW,223,0.0,0.0,97,0.00,,,0.00,0,WeatherHawk,2013-05-14 09:05:00,
2013-05-14 05:10:00,37.1,36.3,30.45,North,10,0.0,0.0,97,0.00,,,0.00,1,WeatherHawk,2013-05-14 09:10:00,
2013-05-14 05:15:00,37.2,36.4,30.44,North,10,0.0,0.0,97,0.00,,,0.00,0,WeatherHawk,2013-05-14 09:15:00,
2013-05-14 05:20:00,38.0,37.2,30.44,North,6,0.0,0.0,97,0.00,,,0.00,0,WeatherHawk,2013-05-14 09:20:00,
2013-05-14 05:25:00,37.7,37.0,30.44,NNE,15,0.0,0.0,97,0.00,,,0.00,0,WeatherHawk,2013-05-14 09:25:00,
2013-05-14 05:30:00,38.7,38.0,30.43,West,279,0.0,0.0,97,0.00,,,0.00,0,WeatherHawk,2013-05-14 09:30:00,
2013-05-14 05:35:00,40.2,39.4,30.43,East,95,0.0,0.0,97,0.00,,,0.00,0,WeatherHawk,2013-05-14 09:35:00,
2013-05-14 05:40:00,38.3,37.3,30.43,WNW,288,0.0,0.0,96,0.00,,,0.00,0,WeatherHawk,2013-05-14 09:40:00,
2013-05-14 05:45:00,37.9,36.3,30.43,NW,309,0.0,0.0,94,0.00,,,0.00,1,WeatherHawk,2013-05-14 09:45:00,
2013-05-14 05:50:00,38.4,36.3,30.43,SW,230,0.0,0.0,92,0.00,,,0.00,1,WeatherHawk,2013-05-14 09:50:00,
2013-05-14 05:55:00,39.0,36.1,30.44,NNE,20,0.0,0.0,89,0.00,,,0.00,0,WeatherHawk,2013-05-14 09:55:00,
2013-05-14 06:00:00,39.0,34.6,30.43,NW,314,2.0,0.0,84,0.00,,,0.00,0,WeatherHawk,2013-05-14 10:00:00,
2013-05-14 06:05:00,40.2,34.2,30.44,NNE,26,1.0,0.0,79,0.00,,,0.00,1,WeatherHawk,2013-05-14 10:05:00,
2013-05-14 06:10:00,41.7,34.4,30.44,WSW,257,0.0,0.0,75,0.00,,,0.00,2,WeatherHawk,2013-05-14 10:10:00,
2013-05-14 06:15:00,40.7,31.3,30.43,WSW,257,0.0,0.0,69,0.00,,,0.00,1,WeatherHawk,2013-05-14 10:15:00,
2013-05-14 06:20:00,41.2,31.4,30.43,NW,314,0.0,0.0,68,0.00,,,0.00,2,WeatherHawk,2013-05-14 10:20:00,
2013-05-14 06:25:00,39.7,30.4,30.43,WNW,284,0.0,0.0,69,0.00,,,0.00,4,WeatherHawk,2013-05-14 10:25:00,
2013-05-14 06:30:00,39.6,30.7,30.43,NE,39,0.0,0.0,70,0.00,,,0.00,5,WeatherHawk,2013-05-14 10:30:00,
2013-05-14 06:35:00,41.5,30.2,30.44,NNW,333,0.0,0.0,64,0.00,,,0.00,9,WeatherHawk,2013-05-14 10:35:00,
2013-05-14 06:40:00,40.7,29.9,30.44,West,260,0.0,0.0,65,0.00,,,0.00,10,WeatherHawk,2013-05-14 10:40:00,
2013-05-14 06:45:00,40.9,30.5,30.43,ESE,114,0.0,0.0,66,0.00,,,0.00,15,WeatherHawk,2013-05-14 10:45:00,
2013-05-14 06:50:00,42.9,30.0,30.44,SE,134,0.0,0.0,60,0.00,,,0.00,17,WeatherHawk,2013-05-14 10:50:00,
2013-05-14 06:55:00,41.3,27.2,30.44,East,82,0.0,0.0,57,0.00,,,0.00,25,WeatherHawk,2013-05-14 10:55:00,
2013-05-14 07:00:00,43.0,28.0,30.43,SE,139,0.0,0.0,55,0.00,,,0.00,28,WeatherHawk,2013-05-14 11:00:00,
2013-05-14 07:05:00,42.7,28.1,30.43,ENE,67,0.0,0.0,56,0.00,,,0.00,48,WeatherHawk,2013-05-14 11:05:00,
2013-05-14 07:10:00,43.3,26.0,30.42,SE,139,1.0,0.0,50,0.00,,,0.00,48,WeatherHawk,2013-05-14 11:10:00,
2013-05-14 07:15:00,44.3,25.8,30.42,ESE,106,0.0,0.0,48,0.00,,,0.00,47,WeatherHawk,2013-05-14 11:15:00,
2013-05-14 07:20:00,44.7,24.1,30.43,SSE,166,0.0,0.0,44,0.00,,,0.00,41,WeatherHawk,2013-05-14 11:20:00,
2013-05-14 07:25:00,44.7,24.1,30.43,ENE,57,1.0,0.0,44,0.00,,,0.00,44,WeatherHawk,2013-05-14 11:25:00,
2013-05-14 07:30:00,45.3,24.2,30.43,ESE,115,0.0,0.0,43,0.00,,,0.00,44,WeatherHawk,2013-05-14 11:30:00,
2013-05-14 07:35:00,45.5,23.1,30.43,South,171,0.0,0.0,41,0.00,,,0.00,48,WeatherHawk,2013-05-14 11:35:00,
2013-05-14 07:40:00,45.4,23.1,30.42,South,182,0.0,0.0,41,0.00,,,0.00,41,WeatherHawk,2013-05-14 11:40:00,
2013-05-14 07:45:00,45.7,22.7,30.42,SE,139,0.0,0.0,40,0.00,,,0.00,41,WeatherHawk,2013-05-14 11:45:00,
2013-05-14 07:50:00,46.3,22.8,30.42,SSE,163,2.0,0.0,39,0.00,,,0.00,51,WeatherHawk,2013-05-14 11:50:00,
2013-05-14 07:55:00,46.5,22.3,30.42,East,94,3.0,0.0,38,0.00,,,0.00,75,WeatherHawk,2013-05-14 11:55:00,
2013-05-14 08:00:00,47.4,23.7,30.42,East,93,0.0,0.0,39,0.00,,,0.00,93,WeatherHawk,2013-05-14 12:00:00,
2013-05-14 08:05:00,47.2,21.7,30.42,South,187,0.0,0.0,36,0.00,,,0.00,135,WeatherHawk,2013-05-14 12:05:00,
2013-05-14 08:10:00,47.1,20.8,30.42,South,171,3.0,0.0,35,0.00,,,0.00,119,WeatherHawk,2013-05-14 12:10:00,
2013-05-14 08:15:00,47.7,21.4,30.42,SSE,160,0.0,0.0,35,0.00,,,0.00,110,WeatherHawk,2013-05-14 12:15:00,
2013-05-14 08:20:00,47.9,21.6,30.42,SE,140,1.0,0.0,35,0.00,,,0.00,96,WeatherHawk,2013-05-14 12:20:00,
2013-05-14 08:25:00,48.0,19.6,30.42,South,184,4.0,0.0,32,0.00,,,0.00,97,WeatherHawk,2013-05-14 12:25:00,
2013-05-14 08:30:00,48.1,19.6,30.42,SE,129,2.0,0.0,32,0.00,,,0.00,93,WeatherHawk,2013-05-14 12:30:00,
2013-05-14 08:35:00,48.3,19.8,30.42,South,181,2.0,0.0,32,0.00,,,0.00,80,WeatherHawk,2013-05-14 12:35:00,
2013-05-14 08:40:00,48.4,19.9,30.42,SSE,160,2.0,0.0,32,0.00,,,0.00,76,WeatherHawk,2013-05-14 12:40:00,
2013-05-14 08:45:00,48.7,19.5,30.41,SSE,153,0.0,0.0,31,0.00,,,0.00,76,WeatherHawk,2013-05-14 12:45:00,
2013-05-14 08:50:00,49.0,19.7,30.42,South,189,3.0,0.0,31,0.00,,,0.00,107,WeatherHawk,2013-05-14 12:50:00,
2013-05-14 08:55:00,49.5,19.3,30.42,SSE,150,2.0,0.0,30,0.00,,,0.00,129,WeatherHawk,2013-05-14 12:55:00,
2013-05-14 09:00:00,49.8,18.8,30.41,SSW,201,0.0,0.0,29,0.00,,,0.00,145,WeatherHawk,2013-05-14 13:00:00,
2013-05-14 09:05:00,49.9,19.7,30.41,South,172,0.0,0.0,30,0.00,,,0.00,131,WeatherHawk,2013-05-14 13:05:00,
2013-05-14 09:10:00,50.2,18.4,30.41,NE,49,0.0,0.0,28,0.00,,,0.00,186,WeatherHawk,2013-05-14 13:10:00,
2013-05-14 09:15:00,50.9,18.1,30.41,SE,132,2.0,0.0,27,0.00,,,0.00,424,WeatherHawk,2013-05-14 13:15:00,
2013-05-14 09:20:00,51.3,17.6,30.41,SSE,158,1.0,0.0,26,0.00,,,0.00,197,WeatherHawk,2013-05-14 13:20:00,
2013-05-14 09:25:00,51.8,17.1,30.40,South,169,1.0,0.0,25,0.00,,,0.00,411,WeatherHawk,2013-05-14 13:25:00,
2013-05-14 09:30:00,51.6,16.0,30.40,SSE,148,3.0,0.0,24,0.00,,,0.00,262,WeatherHawk,2013-05-14 13:30:00,
2013-05-14 09:35:00,51.8,15.2,30.39,ESE,115,1.0,0.0,23,0.00,,,0.00,267,WeatherHawk,2013-05-14 13:35:00,
2013-05-14 09:40:00,54.2,16.2,30.39,South,177,0.0,0.0,22,0.00,,,0.00,221,WeatherHawk,2013-05-14 13:40:00,
2013-05-14 09:45:00,53.5,15.6,30.39,South,178,2.0,0.0,22,0.00,,,0.00,262,WeatherHawk,2013-05-14 13:45:00,
2013-05-14 09:50:00,53.2,15.4,30.39,ENE,73,2.0,0.0,22,0.00,,,0.00,246,WeatherHawk,2013-05-14 13:50:00,
2013-05-14 09:55:00,55.0,14.6,30.38,SSE,148,4.0,0.0,20,0.00,,,0.00,414,WeatherHawk,2013-05-14 13:55:00,
2013-05-14 10:00:00,55.7,17.4,30.38,SSW,205,3.0,0.0,22,0.00,,,0.00,612,WeatherHawk,2013-05-14 14:00:00,
2013-05-14 10:05:00,56.5,14.7,30.36,South,177,3.0,0.0,19,0.00,,,0.00,715,WeatherHawk,2013-05-14 14:05:00,
2013-05-14 10:10:00,56.2,12.0,30.36,ENE,69,4.0,0.0,17,0.00,,,0.00,335,WeatherHawk,2013-05-14 14:10:00,
2013-05-14 10:15:00,57.1,12.7,30.36,ESE,105,2.0,0.0,17,0.00,,,0.00,463,WeatherHawk,2013-05-14 14:15:00,
2013-05-14 10:20:00,57.9,10.6,30.35,South,170,3.0,0.0,15,0.00,,,0.00,747,WeatherHawk,2013-05-14 14:20:00,
2013-05-14 10:25:00,59.5,10.3,30.34,SW,226,2.0,0.0,14,0.00,,,0.00,625,WeatherHawk,2013-05-14 14:25:00,
2013-05-14 10:30:00,61.0,8.0,30.33,SE,132,4.0,0.0,12,0.00,,,0.00,850,WeatherHawk,2013-05-14 14:30:00,
2013-05-14 10:35:00,57.9,7.4,30.32,SSE,147,6.0,0.0,13,0.00,,,0.00,470,WeatherHawk,2013-05-14 14:35:00,
2013-05-14 10:40:00,59.5,6.9,30.33,South,181,2.0,0.0,12,0.00,,,0.00,458,WeatherHawk,2013-05-14 14:40:00,
2013-05-14 10:45:00,59.4,6.8,30.33,South,191,2.0,0.0,12,0.00,,,0.00,458,WeatherHawk,2013-05-14 14:45:00,
2013-05-14 10:50:00,60.3,7.5,30.33,SSE,158,4.0,0.0,12,0.00,,,0.00,374,WeatherHawk,2013-05-14 14:50:00,
2013-05-14 10:55:00,60.4,7.6,30.33,East,85,3.0,0.0,12,0.00,,,0.00,400,WeatherHawk,2013-05-14 14:55:00,
2013-05-14 11:00:00,59.4,2.9,30.32,SSE,152,1.0,0.0,10,0.00,,,0.00,439,WeatherHawk,2013-05-14 15:00:00,
2013-05-14 11:05:00,59.6,0.8,30.33,SSE,148,4.0,0.0,9,0.00,,,0.00,401,WeatherHawk,2013-05-14 15:05:00,
2013-05-14 11:10:00,64.2,4.2,30.33,NW,310,2.0,0.0,9,0.00,,,0.00,890,WeatherHawk,2013-05-14 15:10:00,
2013-05-14 11:15:00,61.9,4.7,30.32,SSE,164,6.0,0.0,10,0.00,,,0.00,563,WeatherHawk,2013-05-14 15:15:00,
2013-05-14 11:20:00,62.0,4.9,30.32,SE,128,3.0,0.0,10,0.00,,,0.00,771,WeatherHawk,2013-05-14 15:20:00,
2013-05-14 11:25:00,61.1,6.2,30.30,SSE,153,2.0,0.0,11,0.00,,,0.00,607,WeatherHawk,2013-05-14 15:25:00,
2013-05-14 11:30:00,60.5,-3.9,30.31,South,169,8.0,0.0,7,0.00,,,0.00,370,WeatherHawk,2013-05-14 15:30:00,
2013-05-14 11:35:00,62.2,2.7,30.29,SE,135,5.0,0.0,9,0.00,,,0.00,412,WeatherHawk,2013-05-14 15:35:00,
2013-05-14 11:40:00,62.9,-2.1,30.31,SSE,157,8.0,0.0,7,0.00,,,0.00,381,WeatherHawk,2013-05-14 15:40:00,
2013-05-14 11:45:00,61.4,2.1,30.29,SSE,168,8.0,0.0,9,0.00,,,0.00,622,WeatherHawk,2013-05-14 15:45:00,
2013-05-14 11:50:00,62.5,-2.4,30.31,South,189,9.0,0.0,7,0.00,,,0.00,439,WeatherHawk,2013-05-14 15:50:00,
2013-05-14 11:55:00,63.2,-1.9,30.30,SSE,147,9.0,0.0,7,0.00,,,0.00,827,WeatherHawk,2013-05-14 15:55:00,
2013-05-14 12:00:00,63.7,3.9,30.30,SSE,166,13.0,0.0,9,0.00,,,0.00,828,WeatherHawk,2013-05-14 16:00:00,
2013-05-14 12:05:00,65.3,5.1,30.30,SSE,166,10.0,0.0,9,0.00,,,0.00,821,WeatherHawk,2013-05-14 16:05:00,
2013-05-14 12:10:00,64.5,-4.2,30.28,South,174,10.0,0.0,6,0.00,,,0.00,826,WeatherHawk,2013-05-14 16:10:00,
2013-05-14 12:15:00,65.8,-3.2,30.29,ESE,121,8.0,0.0,6,0.00,,,0.00,818,WeatherHawk,2013-05-14 16:15:00,
2013-05-14 12:20:00,64.9,-0.6,30.28,SSE,148,6.0,0.0,7,0.00,,,0.00,830,WeatherHawk,2013-05-14 16:20:00,
2013-05-14 12:25:00,65.4,2.6,30.27,SE,133,8.0,0.0,8,0.00,,,0.00,837,WeatherHawk,2013-05-14 16:25:00,
2013-05-14 12:30:00,67.6,1.3,30.27,North,7,6.0,0.0,7,0.00,,,0.00,846,WeatherHawk,2013-05-14 16:30:00,
2013-05-14 12:35:00,67.2,-2.2,30.27,South,177,9.0,0.0,6,0.00,,,0.00,862,WeatherHawk,2013-05-14 16:35:00,
2013-05-14 12:40:00,64.9,-3.9,30.27,SSE,148,8.0,0.0,6,0.00,,,0.00,896,WeatherHawk,2013-05-14 16:40:00,
2013-05-14 12:45:00,67.4,-2.0,30.26,South,186,2.0,0.0,6,0.00,,,0.00,873,WeatherHawk,2013-05-14 16:45:00,
2013-05-14 12:50:00,67.9,4.5,30.26,SE,143,5.0,0.0,8,0.00,,,0.00,871,WeatherHawk,2013-05-14 16:50:00,
2013-05-14 12:55:00,68.0,4.5,30.24,SSW,193,8.0,0.0,8,0.00,,,0.00,875,WeatherHawk,2013-05-14 16:55:00,
2013-05-14 13:00:00,66.8,3.6,30.24,WSW,251,8.0,0.0,8,0.00,,,0.00,879,WeatherHawk,2013-05-14 17:00:00,
2013-05-14 13:05:00,69.0,5.3,30.25,WSW,246,8.0,0.0,8,0.00,,,0.00,876,WeatherHawk,2013-05-14 17:05:00,
2013-05-14 13:10:00,70.2,-0.1,30.24,NW,317,6.0,0.0,6,0.00,,,0.00,887,WeatherHawk,2013-05-14 17:10:00,
2013-05-14 13:15:00,71.4,-3.0,30.22,WNW,289,3.0,0.0,5,0.00,,,0.00,871,WeatherHawk,2013-05-14 17:15:00,
2013-05-14 13:20:00,67.7,-1.8,30.23,South,169,5.0,0.0,6,0.00,,,0.00,878,WeatherHawk,2013-05-14 17:20:00,
2013-05-14 13:25:00,71.3,-3.1,30.23,SSE,151,5.0,0.0,5,0.00,,,0.00,878,WeatherHawk,2013-05-14 17:25:00,
2013-05-14 13:30:00,72.5,-2.2,30.23,SW,219,2.0,0.0,5,0.00,,,0.00,886,WeatherHawk,2013-05-14 17:30:00,
2013-05-14 13:35:00,71.1,0.6,30.23,SSE,165,6.0,0.0,6,0.00,,,0.00,889,WeatherHawk,2013-05-14 17:35:00,
2013-05-14 13:40:00,71.0,0.5,30.22,South,190,6.0,0.0,6,0.00,,,0.00,887,WeatherHawk,2013-05-14 17:40:00,
2013-05-14 13:45:00,68.9,-4.8,30.21,SSE,159,12.0,0.0,5,0.00,,,0.00,898,WeatherHawk,2013-05-14 17:45:00,
2013-05-14 13:50:00,70.9,-3.4,30.22,South,182,6.0,0.0,5,0.00,,,0.00,892,WeatherHawk,2013-05-14 17:50:00,
2013-05-14 13:55:00,70.6,-3.6,30.22,South,186,10.0,0.0,5,0.00,,,0.00,897,WeatherHawk,2013-05-14 17:55:00,
2013-05-14 14:00:00,71.6,7.2,30.20,SE,125,12.0,0.0,8,0.00,,,0.00,890,WeatherHawk,2013-05-14 18:00:00,
2013-05-14 14:05:00,72.8,8.1,30.20,NNW,338,6.0,0.0,8,0.00,,,0.00,892,WeatherHawk,2013-05-14 18:05:00,
2013-05-14 14:10:00,70.0,3.1,30.19,WNW,286,5.0,0.0,7,0.00,,,0.00,889,WeatherHawk,2013-05-14 18:10:00,
2013-05-14 14:15:00,72.0,7.5,30.19,SE,146,14.0,0.0,8,0.00,,,0.00,886,WeatherHawk,2013-05-14 18:15:00,
2013-05-14 14:20:00,72.1,4.6,30.18,SSE,162,7.0,0.0,7,0.00,,,0.00,881,WeatherHawk,2013-05-14 18:20:00,
2013-05-14 14:25:00,73.7,8.8,30.17,NNE,31,4.0,0.0,8,0.00,,,0.00,875,WeatherHawk,2013-05-14 18:25:00,
2013-05-14 14:30:00,73.0,-1.9,30.16,SSE,152,7.0,0.0,5,0.00,,,0.00,870,WeatherHawk,2013-05-14 18:30:00,
2013-05-14 14:35:00,71.5,4.2,30.17,SE,143,8.0,0.0,7,0.00,,,0.00,874,WeatherHawk,2013-05-14 18:35:00,
2013-05-14 14:40:00,69.8,-4.1,30.16,South,172,16.0,0.0,5,0.00,,,0.00,870,WeatherHawk,2013-05-14 18:40:00,
2013-05-14 14:45:00,73.3,8.4,30.16,SSE,158,5.0,0.0,8,0.00,,,0.00,870,WeatherHawk,2013-05-14 18:45:00,
2013-05-14 14:50:00,72.3,4.8,30.16,SSW,192,9.0,0.0,7,0.00,,,0.00,862,WeatherHawk,2013-05-14 18:50:00,
2013-05-14 14:55:00,73.8,2.5,30.14,NNW,327,8.0,0.0,6,0.00,,,0.00,854,WeatherHawk,2013-05-14 18:55:00,
2013-05-14 15:00:00,75.4,7.0,30.15,WNW,283,6.0,0.0,7,0.00,,,0.00,863,WeatherHawk,2013-05-14 19:00:00,
2013-05-14 15:05:00,75.3,10.0,30.14,SSE,153,8.0,0.0,8,0.00,,,0.00,874,WeatherHawk,2013-05-14 19:05:00,
2013-05-14 15:10:00,73.3,5.5,30.14,SSE,163,6.0,0.0,7,0.00,,,0.00,831,WeatherHawk,2013-05-14 19:10:00,
2013-05-14 15:15:00,73.2,2.1,30.14,SSE,149,15.0,0.0,6,0.00,,,0.00,848,WeatherHawk,2013-05-14 19:15:00,
2013-05-14 15:20:00,74.8,6.6,30.14,SE,137,9.0,0.0,7,0.00,,,0.00,852,WeatherHawk,2013-05-14 19:20:00,
2013-05-14 15:25:00,77.4,11.5,30.12,WNW,293,7.0,0.0,8,0.00,,,0.00,888,WeatherHawk,2013-05-14 19:25:00,
2013-05-14 15:30:00,75.1,-0.4,30.12,South,180,7.0,0.0,5,0.00,,,0.00,772,WeatherHawk,2013-05-14 19:30:00,
2013-05-14 15:35:00,74.2,9.1,30.13,South,179,12.0,0.0,8,0.00,,,0.00,412,WeatherHawk,2013-05-14 19:35:00,
2013-05-14 15:40:00,74.7,3.2,30.13,SE,141,13.0,0.0,6,0.00,,,0.00,490,WeatherHawk,2013-05-14 19:40:00,
2013-05-14 15:45:00,74.1,9.0,30.13,SSE,157,11.0,0.0,8,0.00,,,0.00,801,WeatherHawk,2013-05-14 19:45:00,
2013-05-14 15:50:00,76.9,11.2,30.13,SE,133,9.0,0.0,8,0.00,,,0.00,1108,WeatherHawk,2013-05-14 19:50:00,
2013-05-14 15:55:00,76.6,8.0,30.12,SE,142,7.0,0.0,7,0.00,,,0.00,560,WeatherHawk,2013-05-14 19:55:00,
2013-05-14 16:00:00,77.4,5.1,30.11,SSW,210,4.0,0.0,6,0.00,,,0.00,390,WeatherHawk,2013-05-14 20:00:00,
2013-05-14 16:05:00,76.0,0.2,30.12,SSE,167,3.0,0.0,5,0.00,,,0.00,427,WeatherHawk,2013-05-14 20:05:00,
2013-05-14 16:10:00,76.1,4.2,30.12,SE,145,4.0,0.0,6,0.00,,,0.00,908,WeatherHawk,2013-05-14 20:10:00,
2013-05-14 16:15:00,78.4,5.9,30.10,SSW,205,6.0,0.0,6,0.00,,,0.00,874,WeatherHawk,2013-05-14 20:15:00,
2013-05-14 16:20:00,76.7,8.0,30.10,South,181,5.0,0.0,7,0.00,,,0.00,272,WeatherHawk,2013-05-14 20:20:00,
2013-05-14 16:25:00,75.6,10.2,30.10,SSE,168,8.0,0.0,8,0.00,,,0.00,254,WeatherHawk,2013-05-14 20:25:00,
2013-05-14 16:30:00,76.8,11.0,30.08,South,173,14.0,0.0,8,0.00,,,0.00,423,WeatherHawk,2013-05-14 20:30:00,
2013-05-14 16:35:00,75.5,10.1,30.09,South,169,11.0,0.0,8,0.00,,,0.00,300,WeatherHawk,2013-05-14 20:35:00,
2013-05-14 16:40:00,77.3,11.4,30.09,WSW,247,8.0,0.0,8,0.00,,,0.00,688,WeatherHawk,2013-05-14 20:40:00,
2013-05-14 16:45:00,77.5,5.2,30.08,SE,142,8.0,0.0,6,0.00,,,0.00,656,WeatherHawk,2013-05-14 20:45:00,
2013-05-14 16:50:00,76.5,10.8,30.09,SSE,156,11.0,0.0,8,0.00,,,0.00,623,WeatherHawk,2013-05-14 20:50:00,
2013-05-14 16:55:00,77.2,8.4,30.08,SE,139,7.0,0.0,7,0.00,,,0.00,629,WeatherHawk,2013-05-14 20:55:00,
2013-05-14 17:00:00,77.2,11.4,30.09,SSE,158,11.0,0.0,8,0.00,,,0.00,628,WeatherHawk,2013-05-14 21:00:00,
2013-05-14 17:05:00,76.5,0.6,30.08,South,172,13.0,0.0,5,0.00,,,0.00,620,WeatherHawk,2013-05-14 21:05:00,
2013-05-14 17:10:00,77.3,1.1,30.09,SSW,195,10.0,0.0,5,0.00,,,0.00,602,WeatherHawk,2013-05-14 21:10:00,
2013-05-14 17:15:00,78.7,6.1,30.06,WSW,255,10.0,0.0,6,0.00,,,0.00,603,WeatherHawk,2013-05-14 21:15:00,
2013-05-14 17:20:00,78.2,5.7,30.07,South,169,8.0,0.0,6,0.00,,,0.00,607,WeatherHawk,2013-05-14 21:20:00,
2013-05-14 17:25:00,78.6,12.4,30.06,SE,124,10.0,0.0,8,0.00,,,0.00,568,WeatherHawk,2013-05-14 21:25:00,
2013-05-14 17:30:00,77.7,8.8,30.06,SSE,161,18.0,0.0,7,0.00,,,0.00,547,WeatherHawk,2013-05-14 21:30:00,
2013-05-14 17:35:00,79.4,10.0,30.05,SSE,160,8.0,0.0,7,0.00,,,0.00,552,WeatherHawk,2013-05-14 21:35:00,
2013-05-14 17:40:00,78.7,12.4,30.04,SW,227,13.0,0.0,8,0.00,,,0.00,501,WeatherHawk,2013-05-14 21:40:00,
2013-05-14 17:45:00,79.2,9.8,30.04,SSE,148,8.0,0.0,7,0.00,,,0.00,472,WeatherHawk,2013-05-14 21:45:00,
2013-05-14 17:50:00,79.6,10.1,30.05,SW,216,8.0,0.0,7,0.00,,,0.00,474,WeatherHawk,2013-05-14 21:50:00,
2013-05-14 17:55:00,79.2,6.4,30.04,WNW,283,11.0,0.0,6,0.00,,,0.00,459,WeatherHawk,2013-05-14 21:55:00,
2013-05-14 18:00:00,80.0,16.1,30.03,SSE,164,5.0,0.0,9,0.00,,,0.00,433,WeatherHawk,2013-05-14 22:00:00,
2013-05-14 18:05:00,78.8,6.1,30.04,South,188,12.0,0.0,6,0.00,,,0.00,420,WeatherHawk,2013-05-14 22:05:00,
2013-05-14 18:10:00,79.0,12.7,30.04,South,172,9.0,0.0,8,0.00,,,0.00,407,WeatherHawk,2013-05-14 22:10:00,
2013-05-14 18:15:00,78.7,12.5,30.03,SSE,157,8.0,0.0,8,0.00,,,0.00,396,WeatherHawk,2013-05-14 22:15:00,
2013-05-14 18:20:00,79.7,6.8,30.04,South,182,7.0,0.0,6,0.00,,,0.00,397,WeatherHawk,2013-05-14 22:20:00,
2013-05-14 18:25:00,80.0,7.0,30.03,WNW,297,7.0,0.0,6,0.00,,,0.00,384,WeatherHawk,2013-05-14 22:25:00,
2013-05-14 18:30:00,79.8,6.9,30.03,South,176,7.0,0.0,6,0.00,,,0.00,356,WeatherHawk,2013-05-14 22:30:00,
2013-05-14 18:35:00,79.7,6.8,30.03,SSE,152,10.0,0.0,6,0.00,,,0.00,329,WeatherHawk,2013-05-14 22:35:00,
2013-05-14 18:40:00,79.1,9.8,30.03,South,182,7.0,0.0,7,0.00,,,0.00,312,WeatherHawk,2013-05-14 22:40:00,
2013-05-14 18:45:00,78.6,9.4,30.03,SSE,158,10.0,0.0,7,0.00,,,0.00,295,WeatherHawk,2013-05-14 22:45:00,
2013-05-14 18:50:00,79.0,9.7,30.02,SSE,147,8.0,0.0,7,0.00,,,0.00,280,WeatherHawk,2013-05-14 22:50:00,
2013-05-14 18:55:00,78.6,9.4,30.03,SSE,152,13.0,0.0,7,0.00,,,0.00,263,WeatherHawk,2013-05-14 22:55:00,
2013-05-14 19:00:00,79.4,13.0,30.02,SW,222,6.0,0.0,8,0.00,,,0.00,249,WeatherHawk,2013-05-14 23:00:00,
2013-05-14 19:05:00,78.6,9.4,30.03,SSE,156,10.0,0.0,7,0.00,,,0.00,232,WeatherHawk,2013-05-14 23:05:00,
2013-05-14 19:10:00,78.5,9.3,30.02,South,169,11.0,0.0,7,0.00,,,0.00,214,WeatherHawk,2013-05-14 23:10:00,
2013-05-14 19:15:00,78.8,12.5,30.02,SSW,199,5.0,0.0,8,0.00,,,0.00,194,WeatherHawk,2013-05-14 23:15:00,
2013-05-14 19:20:00,78.7,15.2,30.04,SSE,161,7.0,0.0,9,0.00,,,0.00,186,WeatherHawk,2013-05-14 23:20:00,
2013-05-14 19:25:00,78.6,12.4,30.02,SSE,161,9.0,0.0,8,0.00,,,0.00,172,WeatherHawk,2013-05-14 23:25:00,
2013-05-14 19:30:00,78.4,9.2,30.04,South,179,8.0,0.0,7,0.00,,,0.00,156,WeatherHawk,2013-05-14 23:30:00,
2013-05-14 19:35:00,78.4,14.9,30.02,SSE,165,2.0,0.0,9,0.00,,,0.00,140,WeatherHawk,2013-05-14 23:35:00,
2013-05-14 19:40:00,77.8,16.9,30.02,SSE,163,6.0,0.0,10,0.00,,,0.00,124,WeatherHawk,2013-05-14 23:40:00,
2013-05-14 19:45:00,78.0,17.0,30.03,South,181,5.0,0.0,10,0.00,,,0.00,111,WeatherHawk,2013-05-14 23:45:00,
2013-05-14 19:50:00,78.0,17.1,30.04,SSE,167,10.0,0.0,10,0.00,,,0.00,95,WeatherHawk,2013-05-14 23:50:00,
2013-05-14 19:55:00,77.4,18.8,30.03,SSE,162,6.0,0.0,11,0.00,,,0.00,82,WeatherHawk,2013-05-14 23:55:00,
2013-05-14 20:00:00,77.7,19.0,30.03,SW,222,4.0,0.0,11,0.00,,,0.00,68,WeatherHawk,2013-05-15 00:00:00,
2013-05-14 20:05:00,77.4,18.8,30.04,SE,143,6.0,0.0,11,0.00,,,0.00,55,WeatherHawk,2013-05-15 00:05:00,
2013-05-14 20:10:00,76.8,18.3,30.04,SE,128,4.0,0.0,11,0.00,,,0.00,43,WeatherHawk,2013-05-15 00:10:00,
2013-05-14 20:15:00,76.7,18.2,30.04,ESE,123,4.0,0.0,11,0.00,,,0.00,31,WeatherHawk,2013-05-15 00:15:00,
2013-05-14 20:20:00,76.5,20.1,30.04,SSE,153,4.0,0.0,12,0.00,,,0.00,22,WeatherHawk,2013-05-15 00:20:00,
2013-05-14 20:25:00,76.2,19.9,30.04,SSE,154,4.0,0.0,12,0.00,,,0.00,12,WeatherHawk,2013-05-15 00:25:00,
2013-05-14 20:30:00,75.5,21.2,30.05,SSE,160,3.0,0.0,13,0.00,,,0.00,7,WeatherHawk,2013-05-15 00:30:00,
2013-05-14 20:35:00,75.4,21.1,30.05,SE,138,1.0,0.0,13,0.00,,,0.00,3,WeatherHawk,2013-05-15 00:35:00,
2013-05-14 20:40:00,74.8,22.4,30.07,South,182,0.0,0.0,14,0.00,,,0.00,3,WeatherHawk,2013-05-15 00:40:00,
2013-05-14 20:45:00,74.8,22.4,30.06,SSE,161,1.0,0.0,14,0.00,,,0.00,1,WeatherHawk,2013-05-15 00:45:00,
2013-05-14 20:50:00,74.2,23.6,30.06,South,188,2.0,0.0,15,0.00,,,0.00,0,WeatherHawk,2013-05-15 00:50:00,
2013-05-14 20:55:00,73.9,23.4,30.07,SSE,158,1.0,0.0,15,0.00,,,0.00,1,WeatherHawk,2013-05-15 00:55:00,
2013-05-14 21:00:00,74.0,24.9,30.07,South,170,1.0,0.0,16,0.00,,,0.00,0,WeatherHawk,2013-05-15 01:00:00,
2013-05-14 21:05:00,73.8,24.8,30.06,South,183,0.0,0.0,16,0.00,,,0.00,1,WeatherHawk,2013-05-15 01:05:00,
2013-05-14 21:10:00,72.4,26.5,30.07,ESE,105,0.0,0.0,18,0.00,,,0.00,0,WeatherHawk,2013-05-15 01:10:00,
2013-05-14 21:15:00,72.7,26.8,30.07,SSE,158,0.0,0.0,18,0.00,,,0.00,0,WeatherHawk,2013-05-15 01:15:00,
2013-05-14 21:20:00,68.9,28.5,30.07,ENE,60,0.0,0.0,22,0.00,,,0.00,1,WeatherHawk,2013-05-15 01:20:00,
2013-05-14 21:25:00,66.5,29.6,30.08,North,0,0.0,0.0,25,0.00,,,0.00,0,WeatherHawk,2013-05-15 01:25:00,
2013-05-14 21:30:00,65.6,30.7,30.08,NNE,27,0.0,0.0,27,0.00,,,0.00,0,WeatherHawk,2013-05-15 01:30:00,
2013-05-14 21:35:00,65.5,32.4,30.10,WNW,298,0.0,0.0,29,0.00,,,0.00,0,WeatherHawk,2013-05-15 01:35:00,
2013-05-14 21:40:00,65.8,34.3,30.10,South,181,0.0,0.0,31,0.00,,,0.00,0,WeatherHawk,2013-05-15 01:40:00,
2013-05-14 21:45:00,65.0,34.4,30.11,WSW,247,0.0,0.0,32,0.00,,,0.00,1,WeatherHawk,2013-05-15 01:45:00,
2013-05-14 21:50:00,64.9,35.1,30.11,WSW,249,0.0,0.0,33,0.00,,,0.00,0,WeatherHawk,2013-05-15 01:50:00,
2013-05-14 21:55:00,64.8,35.8,30.12,SE,145,0.0,0.0,34,0.00,,,0.00,0,WeatherHawk,2013-05-15 01:55:00,
2013-05-14 22:00:00,65.0,36.0,30.12,ENE,75,0.0,0.0,34,0.00,,,0.00,0,WeatherHawk,2013-05-15 02:00:00,
2013-05-14 22:05:00,64.7,36.4,30.12,West,276,0.0,0.0,35,0.00,,,0.00,1,WeatherHawk,2013-05-15 02:05:00,
2013-05-14 22:10:00,63.8,37.0,30.12,SE,143,0.0,0.0,37,0.00,,,0.00,0,WeatherHawk,2013-05-15 02:10:00,
2013-05-14 22:15:00,63.4,37.4,30.11,NNE,20,0.0,0.0,38,0.00,,,0.00,0,WeatherHawk,2013-05-15 02:15:00,
2013-05-14 22:20:00,63.2,37.1,30.12,ENE,60,0.0,0.0,38,0.00,,,0.00,0,WeatherHawk,2013-05-15 02:20:00,
2013-05-14 22:25:00,65.3,39.0,30.11,South,188,0.0,0.0,38,0.00,,,0.00,0,WeatherHawk,2013-05-15 02:25:00,
2013-05-14 22:30:00,65.4,37.7,30.11,SSE,166,3.0,0.0,36,0.00,,,0.00,1,WeatherHawk,2013-05-15 02:30:00,
2013-05-14 22:35:00,65.9,37.5,30.11,South,176,0.0,0.0,35,0.00,,,0.00,0,WeatherHawk,2013-05-15 02:35:00,
2013-05-14 22:40:00,66.7,36.7,30.10,South,170,3.0,0.0,33,0.00,,,0.00,0,WeatherHawk,2013-05-15 02:40:00,
2013-05-14 22:46:00,67.4,35.7,30.10,SSE,167,7.0,0.0,31,0.00,,,0.00,0,WeatherHawk,2013-05-15 02:46:00,
2013-05-14 22:51:00,67.2,34.7,30.09,South,183,7.0,0.0,30,0.00,,,0.00,0,WeatherHawk,2013-05-15 02:51:00,
2013-05-14 22:56:00,67.9,34.5,30.08,SSW,193,6.0,0.0,29,0.00,,,0.00,0,WeatherHawk,2013-05-15 02:56:00,
2013-05-14 23:01:00,67.8,32.6,30.08,North,351,5.0,0.0,27,0.00,,,0.00,0,WeatherHawk,2013-05-15 03:01:00,
2013-05-14 23:06:00,68.4,33.1,30.07,SE,139,1.0,0.0,27,0.00,,,0.00,0,WeatherHawk,2013-05-15 03:06:00,
2013-05-14 23:11:00,68.7,32.4,30.09,SSE,161,0.0,0.0,26,0.00,,,0.00,0,WeatherHawk,2013-05-15 03:11:00,
2013-05-14 23:16:00,69.6,32.2,30.09,South,178,3.0,0.0,25,0.00,,,0.00,0,WeatherHawk,2013-05-15 03:16:00,
2013-05-14 23:21:00,69.2,32.9,30.10,SE,136,0.0,0.0,26,0.00,,,0.00,0,WeatherHawk,2013-05-15 03:21:00,
2013-05-14 23:26:00,68.6,32.3,30.10,SSE,148,0.0,0.0,26,0.00,,,0.00,0,WeatherHawk,2013-05-15 03:26:00,
2013-05-14 23:31:00,69.1,32.8,30.09,SSE,162,2.0,0.0,26,0.00,,,0.00,0,WeatherHawk,2013-05-15 03:31:00,
2013-05-14 23:36:00,68.4,32.2,30.09,SE,140,2.0,0.0,26,0.00,,,0.00,1,WeatherHawk,2013-05-15 03:36:00,
2013-05-14 23:41:00,69.0,31.7,30.09,SSE,162,5.0,0.0,25,0.00,,,0.00,0,WeatherHawk,2013-05-15 03:41:00,
2013-05-14 23:46:00,69.5,32.1,30.10,South,175,0.0,0.0,25,0.00,,,0.00,0,WeatherHawk,2013-05-15 03:46:00,
2013-05-14 23:51:00,63.7,30.0,30.10,NE,39,0.0,0.0,28,0.00,,,0.00,0,WeatherHawk,2013-05-15 03:51:00,
2013-05-14 23:56:00,63.8,34.1,30.11,WNW,288,0.0,0.0,33,0.00,,,0.00,1,WeatherHawk,2013-05-15 03:56:00,